METAR Data
IDs: Format: Raw Decoded Include TAF

Data at: 0822 UTC 20 Sep 2018

PAWI 200805Z AUTO 04005KT 1 1/4SM BR SCT001 01/01 A3008 RMK AO2 T00110011 TSNO
PAWI 200753Z AUTO 01004KT 1/4SM FG VV001 01/01 A3009 RMK AO2 SLP189 T00060006 TSNO
PAWI 200653Z AUTO 01004KT 1/4SM FG VV002 02/02 A3010 RMK AO2 SLP193 T00170017 TSNO
PAWI 200553Z AUTO 05004KT 1/4SM FG VV001 01/01 A3010 RMK AO2 SLP192 T00110011 10039 20011 56001 TSNO
PAWI 200453Z AUTO 01004KT M1/4SM FG VV001 02/02 A3010 RMK AO2 SLP193 T00170017 TSNO
PAWI 200353Z AUTO 03007KT M1/4SM FG VV002 03/02 A3010 RMK AO2 SLP193 T00280022 TSNO
PAWI 200253Z AUTO 03004KT 1/4SM FG VV002 03/03 A3010 RMK SLP194 T00330033 58003 TSNO VIA AUTODIAL
PAWI 200153Z AUTO 03005KT 1/4SM FG VV002 03/03 A3011 RMK AO2 SLP195 T00330033 TSNO
PAWI 200053Z AUTO 35005KT 1/4SM FG VV002 04/04 A3011 RMK AO2 SLP197 T00390039 TSNO
PAWI 192353Z AUTO 32003KT 1/4SM FG VV002 04/04 A3011 RMK AO2 SLP198 T00390039 10044 20011 56004 TSNO
PAWI 192253Z AUTO VRB03KT 1/4SM FG VV002 04/04 A3011 RMK AO2 SLP198 T00440039 TSNO
PAWI 192153Z AUTO 00000KT M1/4SM FG VV002 04/04 A3012 RMK AO2 SLP200 T00390039 TSNO
PAWI 192053Z AUTO 14003KT 1/4SM FG VV002 03/03 A3012 RMK AO2 SLP201 T00330033 55001 TSNO
PAWI 192044Z AUTO 15004KT 3/4SM BR OVC002 03/03 A3012 RMK AO2 T00330033 TSNO
PAWI 192031Z AUTO 00000KT 1 3/4SM BR OVC002 03/03 A3013 RMK AO2 T00330028 TSNO
PAWI 191953Z AUTO 00000KT 1/4SM FG VV002 03/03 A3012 RMK AO2 SLP199 T00280028 TSNO
PAWI 191853Z AUTO 05003KT 1/4SM FG VV002 02/02 A3012 RMK AO2 SLP200 T00220017 TSNO
PAWI 191753Z AUTO 10003KT 1/4SM FG VV002 01/01 A3012 RMK AO2 SLP202 I6001 T00110011 10017 21006 51004 TSNO
PAWI 191653Z AUTO 00000KT 1/4SM FG VV003 01/00 A3012 RMK AO2 SLP202 I1000 T00060000 TSNO
PAWI 191612Z AUTO 03004KT 1/2SM FG VV003 00/00 A3013 RMK AO2 T00000000 TSNO
PAWI 191600Z AUTO 06003KT 1 3/4SM BR OVC003 00/00 A3013 RMK AO2 T00000000 TSNO
PAWI 191553Z AUTO 07003KT 5SM BR OVC004 00/M01 A3012 RMK AO2 SLP202 I1001 T00001006 TSNO
PAWI 191538Z AUTO 07004KT 2SM BR OVC004 M01/M01 A3012 RMK AO2 I1001 T10061006 TSNO
PAWI 191526Z AUTO 06003KT 1/4SM FZFG VV004 M01/M01 A3012 RMK AO2 I1001 T10061006 TSNO
PAWI 191453Z AUTO 05004KT 1/4SM FZFG VV001 M01/M01 A3011 RMK AO2 SLP197 T10061006 56002 TSNO
PAWI 191353Z AUTO 14005KT 1/4SM FG VV002 02/01 A3011 RMK AO2 SLP198 T00170011 TSNO
PAWI 191321Z AUTO 15004KT 1/2SM FG VV001 00/00 A3011 RMK AO2 T00000000 TSNO
PAWI 191311Z AUTO 10004KT 1 3/4SM BR OVC002 00/00 A3011 RMK AO2 T00000000 TSNO
PAWI 191301Z AUTO 10005KT 10SM OVC003 00/00 A3011 RMK AO2 T00000000 TSNO
PAWI 191253Z AUTO 09005KT 10SM OVC004 00/00 A3011 RMK AO2 SLP198 T00000000 TSNO
PAWI 191220Z AUTO 11005KT 10SM OVC004 01/00 A3012 RMK AO2 T00060000 TSNO
PAWI 191153Z AUTO 08003KT 10SM BKN003 OVC047 00/00 A3012 RMK AO2 SLP199 I6000 T00000000 10000 21011 53002 TSNO
PAWI 191053Z AUTO 08004KT 10SM OVC003 00/M01 A3011 RMK AO2 SLP198 T00001006 TSNO
PAWI 191002Z AUTO 09006KT 10SM BKN003 M01/M01 A3011 RMK AO2 T10061011 TSNO
PAWI 190953Z AUTO 10006KT 10SM SCT003 M01/M01 A3011 RMK AO2 SLP197 T10061011 TSNO
PAWI 190950Z AUTO 10006KT 10SM SCT003 M01/M01 A3011 RMK AO2 TSNO
PAWI 190853Z AUTO 11008KT 10SM CLR M01/M01 A3011 RMK AO2 SLP198 I1000 I3000 T10061011 400441006 53000 TSNO
PAWI 190753Z AUTO 11007KT 10SM CLR M01/M01 A3011 RMK AO2 SLP198 T10061006 TSNO
PAWI 190721Z AUTO 11007KT 10SM SCT001 M01/M01 A3011 RMK AO2 T10061006 TSNO
PAWI 190701Z AUTO 10008KT 3SM BR OVC001 00/00 A3011 RMK AO2 T00000000 TSNO
PAWI 190653Z AUTO 10006KT 1SM BR VV001 00/00 A3011 RMK AO2 SLP195 T00000000 TSNO
PAWI 190550Z AUTO 09008KT 3/4SM BR VV002 01/01 A3011 RMK AO2 SLP197 T00110006 10044 20006 53002 TSNO
PAWI 190549Z AUTO 09008KT 3/4SM BR VV002 01/01 A3011 RMK AO2 TSNO
PAWI 190537Z AUTO 09010KT 2SM BR OVC002 01/01 A3011 RMK AO2 T00110006 TSNO
PAWI 190523Z AUTO 10010KT 1/4SM FG VV002 01/01 A3011 RMK AO2 T00110011 TSNO
PAWI 190501Z AUTO 09012KT 1 1/2SM BR OVC002 01/01 A3011 RMK AO2 T00110011 TSNO
PAWI 190453Z AUTO 09011KT 3/4SM BR OVC002 01/01 A3011 RMK AO2 SLP197 T00110011 TSNO
PAWI 190435Z AUTO 08009KT 3/4SM BR OVC002 02/01 A3010 RMK AO2 T00170011 TSNO
PAWI 190427Z AUTO 09011KT 10SM BKN002 OVC100 02/01 A3010 RMK AO2 T00170011 TSNO
PAWI 190406Z AUTO 09010KT 2 1/2SM BR OVC002 02/01 A3010 RMK AO2 T00170011 TSNO
PAWI 190353Z AUTO 08010KT 1/2SM FG BKN002 OVC100 02/02 A3010 RMK AO2 SLP194 T00170017 TSNO
PAWI 190340Z AUTO 08010KT 1 3/4SM BR BKN002 OVC100 02/02 A3010 RMK AO2 T00220017 TSNO
PAWI 190307Z AUTO 08010KT 8SM BKN003 OVC100 02/02 A3010 RMK AO2 T00220017 TSNO
PAWI 190253Z AUTO 08010KT 10SM FEW003 OVC100 03/02 A3010 RMK AO2 SLP192 T00280017 53000 TSNO
PAWI 190153Z AUTO 08011KT 10SM BKN095 04/02 A3009 RMK AO2 SLP190 T00390022 TSNO
PAWI 190053Z AUTO 10014KT 10SM CLR 04/02 A3009 RMK AO2 SLP191 T00440017 TSNO
PAWI 182353Z AUTO 10013KT 10SM FEW007 SCT090 04/02 A3010 RMK AO2 SLP192 60000 I6001 T00390017 10044 20000 58002 TSNO
PAWI 182343Z AUTO 09012KT 10SM SCT007 BKN090 04/02 A3010 RMK AO2 T00440022 TSNO
PAWI 182253Z AUTO 09013KT 10SM OVC005 03/01 A3010 RMK AO2 SLP194 T00280011 TSNO
PAWI 182153Z AUTO 09012KT 10SM OVC005 02/01 A3011 RMK AO2 SLP196 T00170006 TSNO
PAWI 182114Z AUTO 09012KT 10SM OVC005 01/01 A3010 RMK AO2 T00110006 TSNO
PAWI 182053Z AUTO 09014KT 10SM OVC004 01/00 A3010 RMK AO2 UPE09RAB09E31 SLP194 P0000 60000 I3001 T00060000 58001 TSNO
PAWI 182041Z AUTO 10014KT 10SM OVC004 01/00 A3011 RMK AO2 UPE09RAB09E31 P0000 T00060000 TSNO